createdAt,value
2024-01-20T00:01:02.929Z,19.73
2024-01-20T00:03:30.460Z,20.27
2024-01-20T00:05:57.810Z,18.97
2024-01-20T00:08:24.885Z,18.23
2024-01-20T00:10:52.084Z,20.20
2024-01-20T00:13:19.750Z,19.63
2024-01-20T00:15:46.991Z,20.10
2024-01-20T00:18:14.257Z,17.67
2024-01-20T00:20:41.602Z,19.57
2024-01-20T00:23:08.585Z,21.90
2024-01-20T00:25:35.535Z,22.57
2024-01-20T00:28:04.868Z,21.57
2024-01-20T00:30:34.673Z,23.15
2024-01-20T00:33:02.557Z,20.90
2024-01-20T00:35:29.673Z,21.57
2024-01-20T00:37:57.115Z,19.90
2024-01-20T00:40:24.101Z,20.20
2024-01-20T00:42:53.925Z,19.73
2024-01-20T00:45:21.010Z,19.73
2024-01-20T00:47:47.994Z,18.37
2024-01-20T00:50:15.099Z,19.27
2024-01-20T00:52:42.085Z,18.10
2024-01-20T00:55:09.236Z,20.03
2024-01-20T00:57:36.189Z,19.53
2024-01-20T01:00:09.468Z,19.40
2024-01-20T01:02:40.152Z,19.77
2024-01-20T01:05:07.682Z,20.50
2024-01-20T01:07:35.549Z,21.13
2024-01-20T01:10:07.990Z,20.53
2024-01-20T01:12:35.523Z,22.87
2024-01-20T01:15:02.670Z,19.60
2024-01-20T01:17:31.158Z,21.43
2024-01-20T01:19:58.345Z,24.37
2024-01-20T01:22:25.379Z,22.30
2024-01-20T01:24:54.987Z,22.10
2024-01-20T01:27:21.960Z,20.37
2024-01-20T01:29:48.921Z,19.23
2024-01-20T01:32:15.952Z,18.07
2024-01-20T01:34:43.022Z,19.43
2024-01-20T01:37:10.019Z,19.13
2024-01-20T01:39:37.020Z,18.43
2024-01-20T01:42:04.262Z,18.13
2024-01-20T01:44:31.194Z,20.27
2024-01-20T01:46:58.193Z,18.80
2024-01-20T01:49:25.262Z,20.67
2024-01-20T01:51:52.915Z,18.70
2024-01-20T01:54:20.959Z,18.80
2024-01-20T01:56:51.718Z,18.93
2024-01-20T01:59:20.520Z,18.50
2024-01-20T02:01:47.565Z,19.47
2024-01-20T02:04:14.602Z,20.20
2024-01-20T02:06:42.036Z,20.17
2024-01-20T02:09:11.342Z,20.67
2024-01-20T02:11:39.512Z,20.97
2024-01-20T02:14:07.535Z,21.20
2024-01-20T02:16:34.490Z,20.17
2024-01-20T02:19:06.398Z,18.73
2024-01-20T02:21:34.138Z,16.42
2024-01-20T02:24:01.774Z,18.30
2024-01-20T02:26:29.680Z,16.00
2024-01-20T02:28:56.699Z,17.30
2024-01-20T02:31:23.662Z,17.03
2024-01-20T02:33:50.838Z,16.73
2024-01-20T02:36:17.964Z,18.20
2024-01-20T02:38:45.057Z,18.67
2024-01-20T02:41:13.030Z,18.97
2024-01-20T02:43:39.952Z,16.93
2024-01-20T02:46:07.149Z,18.17
2024-01-20T02:48:34.306Z,17.67
2024-01-20T02:51:01.808Z,18.03
2024-01-20T02:53:29.334Z,17.30
2024-01-20T02:55:56.349Z,17.03
2024-01-20T02:58:23.344Z,17.87
2024-01-20T03:00:50.408Z,16.73
2024-01-20T03:03:17.528Z,15.03
2024-01-20T03:05:47.111Z,16.27
2024-01-20T03:08:14.068Z,14.83
2024-01-20T03:10:41.067Z,17.77
2024-01-20T03:13:07.997Z,15.53
2024-01-20T03:15:35.030Z,16.27
2024-01-20T03:18:02.068Z,15.23
2024-01-20T03:20:29.702Z,15.27
2024-01-20T03:22:56.609Z,16.63
2024-01-20T03:25:23.553Z,14.80
2024-01-20T03:27:50.531Z,14.37
2024-01-20T03:30:17.614Z,14.00
2024-01-20T03:32:44.720Z,15.33
2024-01-20T03:35:11.773Z,15.10
2024-01-20T03:37:38.746Z,14.43
2024-01-20T03:40:06.297Z,15.53
2024-01-20T03:42:33.360Z,12.80
2024-01-20T03:45:00.446Z,12.60
2024-01-20T03:47:27.392Z,12.83
2024-01-20T03:49:54.652Z,11.90
2024-01-20T03:52:21.623Z,11.30
2024-01-20T03:54:48.554Z,10.33
2024-01-20T03:57:15.479Z,11.20
2024-01-20T03:59:42.449Z,12.10
2024-01-20T04:02:11.525Z,13.47
2024-01-20T04:04:39.133Z,12.73
2024-01-20T04:07:07.044Z,12.33
2024-01-20T04:09:34.001Z,13.27
2024-01-20T04:12:01.166Z,13.23
2024-01-20T04:14:28.189Z,11.97
2024-01-20T04:16:55.070Z,11.40
2024-01-20T04:19:22.059Z,12.30
2024-01-20T04:21:49.255Z,12.80
2024-01-20T04:24:16.211Z,13.57
2024-01-20T04:26:43.155Z,12.90
2024-01-20T04:29:10.091Z,13.67
2024-01-20T04:31:36.984Z,12.50
2024-01-20T04:34:04.078Z,14.40
2024-01-20T04:36:31.092Z,14.60
2024-01-20T04:38:58.264Z,14.10
2024-01-20T04:41:25.213Z,12.60
2024-01-20T04:43:52.153Z,14.77
2024-01-20T04:46:19.279Z,15.37
2024-01-20T04:48:46.457Z,13.43
2024-01-20T04:51:13.560Z,14.77
2024-01-20T04:53:40.487Z,15.13
2024-01-20T04:56:07.662Z,12.87
2024-01-20T04:58:34.727Z,12.63
2024-01-20T05:01:01.682Z,13.60
2024-01-20T05:03:28.780Z,12.37
2024-01-20T05:05:55.984Z,12.20
2024-01-20T05:08:22.932Z,14.60
2024-01-20T05:10:49.858Z,13.13
2024-01-20T05:13:16.749Z,11.90
2024-01-20T05:15:43.745Z,14.63
2024-01-20T05:18:10.976Z,13.70
2024-01-20T05:20:38.993Z,11.83
2024-01-20T05:23:05.924Z,11.27
2024-01-20T05:25:32.843Z,13.20
2024-01-20T05:27:59.748Z,12.00
2024-01-20T05:30:26.809Z,10.80
2024-01-20T05:32:53.842Z,12.40
2024-01-20T05:35:20.913Z,12.77
2024-01-20T05:37:47.948Z,12.07
2024-01-20T05:40:15.127Z,12.93
2024-01-20T05:42:42.050Z,12.33
2024-01-20T05:45:10.757Z,13.33
2024-01-20T05:47:38.081Z,12.27
2024-01-20T05:50:05.572Z,12.50
2024-01-20T05:52:32.532Z,11.30
2024-01-20T05:54:59.605Z,10.57
2024-01-20T05:57:26.565Z,10.83
2024-01-20T05:59:53.554Z,12.03
2024-01-20T06:02:20.537Z,12.83
2024-01-20T06:04:47.476Z,14.23
2024-01-20T06:07:14.382Z,13.20
2024-01-20T06:09:41.415Z,14.30
2024-01-20T06:12:08.810Z,13.03
2024-01-20T06:14:36.874Z,14.67
2024-01-20T06:17:03.926Z,14.80
2024-01-20T06:19:30.903Z,13.03
2024-01-20T06:21:57.886Z,13.30
2024-01-20T06:24:25.367Z,11.53
2024-01-20T06:26:52.310Z,11.13
2024-01-20T06:29:19.215Z,11.50
2024-01-20T06:31:46.412Z,12.83
2024-01-20T06:34:13.400Z,12.97
2024-01-20T06:36:40.386Z,13.37
2024-01-20T06:39:07.411Z,14.73
2024-01-20T06:41:34.423Z,14.80
2024-01-20T06:44:01.330Z,13.83
2024-01-20T06:46:28.305Z,14.00
2024-01-20T06:48:55.421Z,14.97
2024-01-20T06:51:26.998Z,14.97
2024-01-20T06:53:58.708Z,14.95
2024-01-20T06:56:26.326Z,13.55
2024-01-20T06:58:57.477Z,13.10
2024-01-20T07:01:24.799Z,14.18
2024-01-20T07:03:52.151Z,14.00
2024-01-20T07:06:26.502Z,13.70
2024-01-20T07:08:53.958Z,12.80
2024-01-20T07:11:20.980Z,13.00
2024-01-20T07:13:48.056Z,12.30
2024-01-20T07:16:16.936Z,15.20
2024-01-20T07:18:43.945Z,15.50
2024-01-20T07:21:10.953Z,13.33
2024-01-20T07:23:37.932Z,12.83
2024-01-20T07:26:06.297Z,14.40
2024-01-20T07:28:33.342Z,12.57
2024-01-20T07:31:00.294Z,13.80
2024-01-20T07:33:27.391Z,13.80
2024-01-20T07:35:54.456Z,14.27
2024-01-20T07:38:21.497Z,14.27
2024-01-20T07:40:48.444Z,11.83
2024-01-20T07:43:16.121Z,12.70
2024-01-20T07:45:43.103Z,11.83
2024-01-20T07:48:10.165Z,13.47
2024-01-20T07:50:37.266Z,13.10
2024-01-20T07:53:06.330Z,14.17
2024-01-20T07:55:33.327Z,15.03
2024-01-20T07:58:00.230Z,14.93
2024-01-20T08:00:27.258Z,14.70
2024-01-20T08:02:54.350Z,13.80
2024-01-20T08:05:21.384Z,13.63
2024-01-20T08:07:48.320Z,14.87
2024-01-20T08:10:15.488Z,13.53
2024-01-20T08:12:42.760Z,13.13
2024-01-20T08:15:10.103Z,15.20
2024-01-20T08:17:37.128Z,16.10
2024-01-20T08:20:04.352Z,14.43
2024-01-20T08:22:31.325Z,13.47
2024-01-20T08:25:00.765Z,13.70
2024-01-20T08:27:27.771Z,12.00
2024-01-20T08:29:54.825Z,11.50
2024-01-20T08:32:22.203Z,13.00
2024-01-20T08:34:49.701Z,10.37
2024-01-20T08:37:16.801Z,12.33
2024-01-20T08:39:43.868Z,13.90
2024-01-20T08:42:11.307Z,11.43
2024-01-20T08:44:38.254Z,13.80
2024-01-20T08:47:07.915Z,14.33
2024-01-20T08:49:35.096Z,12.90
2024-01-20T08:52:02.200Z,12.57
2024-01-20T08:54:29.302Z,12.93
2024-01-20T08:56:56.442Z,13.70
2024-01-20T08:59:23.648Z,12.60
2024-01-20T09:01:51.469Z,13.40
2024-01-20T09:04:18.503Z,12.90
2024-01-20T09:06:45.617Z,11.77
2024-01-20T09:09:13.142Z,12.27
2024-01-20T09:11:40.136Z,12.30
2024-01-20T09:14:07.153Z,13.63
2024-01-20T09:16:34.160Z,15.03
2024-01-20T09:19:01.298Z,14.73
2024-01-20T09:21:28.363Z,13.00
2024-01-20T09:23:55.325Z,13.50
2024-01-20T09:26:22.377Z,13.17
2024-01-20T09:28:49.460Z,13.40
2024-01-20T09:31:16.440Z,12.73
2024-01-20T09:33:45.277Z,12.43
2024-01-20T09:36:12.656Z,12.13
2024-01-20T09:38:39.688Z,12.27
2024-01-20T09:41:11.135Z,11.60
2024-01-20T09:43:40.021Z,11.80
2024-01-20T09:46:10.872Z,12.03
2024-01-20T09:48:38.069Z,11.07
2024-01-20T09:51:07.614Z,12.17
2024-01-20T09:53:36.141Z,11.83
2024-01-20T09:56:03.760Z,12.17
2024-01-20T09:58:34.825Z,12.33
2024-01-20T10:01:02.879Z,13.40
2024-01-20T10:03:31.419Z,15.07
2024-01-20T10:05:59.073Z,14.37
2024-01-20T10:08:26.176Z,13.17
2024-01-20T10:11:05.702Z,13.10
2024-01-20T10:13:32.939Z,13.63
2024-01-20T10:15:59.942Z,13.17
2024-01-20T10:18:27.004Z,12.70
2024-01-20T10:21:04.928Z,11.90
2024-01-20T10:23:37.012Z,15.40
2024-01-20T10:26:06.967Z,15.67
2024-01-20T10:28:34.863Z,13.90
2024-01-20T10:31:11.104Z,14.40
2024-01-20T10:33:38.921Z,15.40
2024-01-20T10:36:11.452Z,13.63
2024-01-20T10:41:09.750Z,12.43
2024-01-20T10:43:41.615Z,13.17
2024-01-20T10:46:40.538Z,10.65
2024-01-20T10:49:11.761Z,11.50
2024-01-20T10:51:39.149Z,12.60
2024-01-20T10:54:10.331Z,13.00
2024-01-20T10:56:37.889Z,12.37
2024-01-20T10:59:12.306Z,13.00
2024-01-20T11:01:42.031Z,12.47
2024-01-20T11:04:09.688Z,11.97
2024-01-20T11:06:37.671Z,11.47
2024-01-20T11:09:07.855Z,13.80
2024-01-20T11:11:36.797Z,13.33
2024-01-20T11:14:04.040Z,12.20
2024-01-20T11:16:33.391Z,12.73
2024-01-20T11:19:12.166Z,14.40
2024-01-20T11:21:39.550Z,11.37
2024-01-20T11:24:08.037Z,11.90
2024-01-20T11:26:36.919Z,12.27
2024-01-20T11:29:06.039Z,12.50
2024-01-20T11:31:33.899Z,12.30
2024-01-20T11:34:07.375Z,12.27
2024-01-20T11:36:35.762Z,11.67
2024-01-20T11:39:04.886Z,11.67
2024-01-20T11:41:32.014Z,12.80
2024-01-20T11:43:58.975Z,11.90
2024-01-20T11:46:26.121Z,11.40
2024-01-20T11:48:54.279Z,10.50
2024-01-20T11:51:22.157Z,9.80
2024-01-20T11:53:49.620Z,10.60
2024-01-20T11:56:17.796Z,9.77
2024-01-20T11:58:45.003Z,12.10
2024-01-20T12:01:15.091Z,12.30
2024-01-20T12:03:42.702Z,11.20
2024-01-20T12:06:12.953Z,10.50
2024-01-20T12:11:22.139Z,10.17
2024-01-20T12:13:49.988Z,11.10
2024-01-20T12:16:18.233Z,11.37
2024-01-20T12:18:45.606Z,10.07
2024-01-20T12:21:12.795Z,12.83
2024-01-20T12:23:40.857Z,12.23
2024-01-20T12:26:14.816Z,10.80
2024-01-20T12:28:46.624Z,10.97
2024-01-20T12:31:16.256Z,12.45
2024-01-20T12:33:45.256Z,12.93
2024-01-20T12:36:12.729Z,10.50
2024-01-20T12:38:39.646Z,11.83
2024-01-20T12:41:09.270Z,10.30
2024-01-20T12:43:36.187Z,12.87
2024-01-20T12:46:03.178Z,11.53
2024-01-20T12:48:30.198Z,11.30
2024-01-20T12:50:57.834Z,11.23
2024-01-20T12:53:24.869Z,11.60
2024-01-20T12:55:51.818Z,9.83
2024-01-20T12:58:18.812Z,12.37
2024-01-20T13:00:46.246Z,15.43
2024-01-20T13:03:13.562Z,12.32
2024-01-20T13:05:44.721Z,11.23
2024-01-20T13:08:11.860Z,11.45
2024-01-20T13:10:38.818Z,11.40
2024-01-20T13:13:05.955Z,13.43
2024-01-20T13:15:33.012Z,12.50
2024-01-20T13:18:00.118Z,11.17
2024-01-20T13:20:27.080Z,9.33
2024-01-20T13:22:54.760Z,11.20
2024-01-20T13:25:21.716Z,11.37
2024-01-20T13:27:49.087Z,11.25
2024-01-20T13:30:16.170Z,14.67
2024-01-20T13:32:43.218Z,12.77
2024-01-20T13:35:10.662Z,11.73
2024-01-20T13:37:37.582Z,12.07
2024-01-20T13:40:10.302Z,12.70
2024-01-20T13:42:39.157Z,13.00
2024-01-20T13:45:08.475Z,11.87
2024-01-20T13:47:37.246Z,13.03
2024-01-20T13:50:07.837Z,10.50
2024-01-20T13:52:34.918Z,11.47
2024-01-20T13:55:01.867Z,10.37
2024-01-20T13:57:28.869Z,10.43
2024-01-20T13:59:55.830Z,9.03
2024-01-20T14:02:22.830Z,9.07
2024-01-20T14:04:49.892Z,9.05
2024-01-20T14:07:16.916Z,12.40
2024-01-20T14:09:44.061Z,11.23
2024-01-20T14:12:11.125Z,12.00
2024-01-20T14:14:38.125Z,11.27
2024-01-20T14:17:05.650Z,11.40
2024-01-20T14:19:32.798Z,9.07
2024-01-20T14:21:59.928Z,9.33
2024-01-20T14:24:27.979Z,8.67
2024-01-20T14:26:55.097Z,8.10
2024-01-20T14:29:22.009Z,7.10
2024-01-20T14:31:52.751Z,7.80
2024-01-20T14:34:21.136Z,7.60
2024-01-20T14:36:49.807Z,6.90
2024-01-20T14:39:19.822Z,9.80
2024-01-20T14:41:48.659Z,8.83
2024-01-20T14:44:15.999Z,8.85
2024-01-20T14:46:43.364Z,7.87
2024-01-20T14:49:11.324Z,8.50
2024-01-20T14:51:38.526Z,7.90
2024-01-20T14:54:05.898Z,7.20
2024-01-20T14:56:37.169Z,6.53
2024-01-20T14:59:04.574Z,7.03
2024-01-20T15:01:32.128Z,6.57
2024-01-20T15:03:59.108Z,5.63
2024-01-20T15:06:27.754Z,6.50
2024-01-20T15:08:55.676Z,5.83
2024-01-20T15:11:23.081Z,6.53
2024-01-20T15:13:50.297Z,6.43
2024-01-20T15:16:17.734Z,6.47
2024-01-20T15:18:44.840Z,5.47
2024-01-20T15:21:11.894Z,6.03
2024-01-20T15:23:39.332Z,6.30
2024-01-20T15:26:09.419Z,6.87
2024-01-20T15:28:36.571Z,5.43
2024-01-20T15:31:03.639Z,6.22
2024-01-20T15:33:30.649Z,4.73
2024-01-20T15:35:57.625Z,4.85
2024-01-20T15:38:24.570Z,5.13
2024-01-20T15:40:51.842Z,4.57
2024-01-20T15:43:19.464Z,3.80
2024-01-20T15:45:46.434Z,4.77
2024-01-20T15:48:13.536Z,5.03
2024-01-20T15:50:40.611Z,6.37
2024-01-20T15:53:07.539Z,6.07
2024-01-20T15:55:34.470Z,6.27
2024-01-20T15:58:01.497Z,5.00
2024-01-20T16:00:28.522Z,5.03
2024-01-20T16:02:55.462Z,5.50
2024-01-20T16:05:22.671Z,5.37
2024-01-20T16:07:49.958Z,4.17
2024-01-20T16:10:16.884Z,4.07
2024-01-20T16:12:43.815Z,4.53
2024-01-20T16:15:12.781Z,4.17
2024-01-20T16:17:42.206Z,4.10
2024-01-20T16:20:11.933Z,3.27
2024-01-20T16:22:39.541Z,3.53
2024-01-20T16:25:09.343Z,4.03
2024-01-20T16:27:36.367Z,2.83
2024-01-20T16:30:03.565Z,3.50
2024-01-20T16:32:30.518Z,3.23
2024-01-20T16:34:57.482Z,2.87
2024-01-20T16:37:24.421Z,3.57
2024-01-20T16:39:51.714Z,2.70
2024-01-20T16:42:18.790Z,2.63
2024-01-20T16:44:45.732Z,2.70
2024-01-20T16:47:12.708Z,2.57
2024-01-20T16:49:39.787Z,2.83
2024-01-20T16:52:09.796Z,3.03
2024-01-20T16:54:36.736Z,3.50
2024-01-20T16:57:07.951Z,3.77
2024-01-20T16:59:41.240Z,3.80
2024-01-20T17:02:08.243Z,3.27
2024-01-20T17:04:35.375Z,2.83
2024-01-20T17:07:02.722Z,3.80
2024-01-20T17:09:29.643Z,3.40
2024-01-20T17:11:56.648Z,2.70
2024-01-20T17:14:25.863Z,3.43
2024-01-20T17:16:52.911Z,2.97
2024-01-20T17:19:21.355Z,3.53
2024-01-20T17:21:48.380Z,3.67
2024-01-20T17:24:15.846Z,4.10
2024-01-20T17:26:42.958Z,4.27
2024-01-20T17:29:10.569Z,4.43
2024-01-20T17:31:39.049Z,4.00
2024-01-20T17:34:06.241Z,3.33
2024-01-20T17:36:33.641Z,3.90
2024-01-20T17:39:01.602Z,3.37
2024-01-20T17:41:28.661Z,3.80
2024-01-20T17:43:55.611Z,3.83
2024-01-20T17:46:22.515Z,3.87
2024-01-20T17:48:49.772Z,3.30
2024-01-20T17:51:17.009Z,4.63
2024-01-20T17:53:44.062Z,4.37
2024-01-20T17:56:11.055Z,4.37
2024-01-20T17:58:38.080Z,4.23
2024-01-20T18:01:06.241Z,4.30
2024-01-20T18:03:34.280Z,3.60
2024-01-20T18:06:01.712Z,5.10
2024-01-20T18:08:28.868Z,4.93
2024-01-20T18:10:55.940Z,5.73
2024-01-20T18:13:23.522Z,6.07
2024-01-20T18:15:50.481Z,5.10
2024-01-20T18:18:17.851Z,4.30
2024-01-20T18:20:44.934Z,5.13
2024-01-20T18:23:12.044Z,4.77
2024-01-20T18:25:39.152Z,4.70
2024-01-20T18:28:07.419Z,4.57
2024-01-20T18:30:35.469Z,4.80
2024-01-20T18:33:02.666Z,4.47
2024-01-20T18:35:31.276Z,4.40
2024-01-20T18:37:58.302Z,3.67
2024-01-20T18:40:25.312Z,3.57
2024-01-20T18:42:52.499Z,4.47
2024-01-20T18:45:19.868Z,3.23
2024-01-20T18:47:47.172Z,3.53
2024-01-20T18:50:14.851Z,3.53
2024-01-20T18:52:41.822Z,3.40
2024-01-20T18:55:09.813Z,4.33
2024-01-20T18:57:37.275Z,4.77
2024-01-20T19:00:05.604Z,5.10
2024-01-20T19:02:32.940Z,4.40
2024-01-20T19:05:00.024Z,3.53
2024-01-20T19:07:27.142Z,3.90
2024-01-20T19:09:54.085Z,3.27
2024-01-20T19:12:21.429Z,2.73
2024-01-20T19:14:51.577Z,3.90
2024-01-20T19:17:18.623Z,3.77
2024-01-20T19:19:45.930Z,3.67
2024-01-20T19:22:13.336Z,3.30
2024-01-20T19:24:40.479Z,3.70
2024-01-20T19:27:11.162Z,3.40
2024-01-20T19:29:38.390Z,3.37
2024-01-20T19:32:05.870Z,3.60
2024-01-20T19:34:32.993Z,3.23
2024-01-20T19:37:00.126Z,2.40
2024-01-20T19:39:27.244Z,2.30
2024-01-20T19:41:54.739Z,1.93
2024-01-20T19:44:22.676Z,1.90
2024-01-20T19:46:49.802Z,2.00
2024-01-20T19:49:22.752Z,1.90
2024-01-20T19:51:50.161Z,2.00
2024-01-20T19:54:17.279Z,1.83
2024-01-20T19:56:45.069Z,1.50
2024-01-20T19:59:13.945Z,1.70
2024-01-20T20:01:45.665Z,1.70
2024-01-20T20:04:17.394Z,2.03
2024-01-20T20:06:46.504Z,1.23
2024-01-20T20:09:17.441Z,1.50
2024-01-20T20:11:44.553Z,2.10
2024-01-20T20:14:13.067Z,1.33
2024-01-20T20:16:41.281Z,1.50
2024-01-20T20:19:08.794Z,1.70
2024-01-20T20:21:36.046Z,1.63
2024-01-20T20:24:03.097Z,1.50
2024-01-20T20:26:31.090Z,1.43
2024-01-20T20:28:58.007Z,1.60
2024-01-20T20:31:28.325Z,1.60
2024-01-20T20:33:55.684Z,2.00
2024-01-20T20:36:22.936Z,1.80
2024-01-20T20:38:50.032Z,2.10
2024-01-20T20:41:17.009Z,1.97
2024-01-20T20:43:44.012Z,1.90
2024-01-20T20:46:11.036Z,2.07
2024-01-20T20:48:38.853Z,2.00
2024-01-20T20:51:06.039Z,2.20
2024-01-20T20:53:33.181Z,1.97
2024-01-20T20:56:00.380Z,2.60
2024-01-20T20:58:27.368Z,2.83
2024-01-20T21:00:54.424Z,2.30
2024-01-20T21:03:21.942Z,2.50
2024-01-20T21:05:49.211Z,2.80
2024-01-20T21:08:16.309Z,3.07
2024-01-20T21:10:43.512Z,2.73
2024-01-20T21:13:11.456Z,3.23
2024-01-20T21:15:39.210Z,2.17
2024-01-20T21:18:08.800Z,2.57
2024-01-20T21:20:36.051Z,2.53
2024-01-20T21:23:04.193Z,2.80
2024-01-20T21:25:31.485Z,1.80
2024-01-20T21:27:59.900Z,2.17
2024-01-20T21:30:28.460Z,1.87
2024-01-20T21:32:55.848Z,2.37
2024-01-20T21:35:23.098Z,1.97
2024-01-20T21:37:51.385Z,1.60
2024-01-20T21:40:18.477Z,2.47
2024-01-20T21:42:48.465Z,1.87
2024-01-20T21:45:15.767Z,1.80
2024-01-20T21:47:42.835Z,2.50
2024-01-20T21:50:09.965Z,1.70
2024-01-20T21:52:36.903Z,2.00
2024-01-20T21:55:04.961Z,1.70
2024-01-20T21:57:34.971Z,2.13
2024-01-20T22:00:02.018Z,2.30
2024-01-20T22:02:39.319Z,2.33
2024-01-20T22:05:09.233Z,1.93
2024-01-20T22:07:36.609Z,2.13
2024-01-20T22:10:04.598Z,2.70
2024-01-20T22:12:31.842Z,2.23
2024-01-20T22:14:58.869Z,2.30
2024-01-20T22:17:25.993Z,2.50
2024-01-20T22:19:53.356Z,2.10
2024-01-20T22:22:20.973Z,2.70
2024-01-20T22:24:48.041Z,2.30
2024-01-20T22:27:15.150Z,2.83
2024-01-20T22:29:42.170Z,2.70
2024-01-20T22:32:09.195Z,2.47
2024-01-20T22:34:36.239Z,2.50
2024-01-20T22:37:03.345Z,1.73
2024-01-20T22:39:30.616Z,2.47
2024-01-20T22:41:57.565Z,2.03
2024-01-20T22:44:24.497Z,2.03
2024-01-20T22:46:51.502Z,2.40
2024-01-20T22:49:34.152Z,2.30
2024-01-20T22:52:01.365Z,2.70
2024-01-20T22:54:29.169Z,2.20
2024-01-20T22:56:56.365Z,2.80
2024-01-20T22:59:23.284Z,2.40
2024-01-20T23:01:50.305Z,2.07
2024-01-20T23:04:17.757Z,2.60
2024-01-20T23:06:46.820Z,2.47
2024-01-20T23:09:14.184Z,2.27
2024-01-20T23:11:41.216Z,2.50
2024-01-20T23:14:08.367Z,2.47
2024-01-20T23:16:35.433Z,2.17
2024-01-20T23:19:02.441Z,2.70
2024-01-20T23:21:29.437Z,1.83
2024-01-20T23:23:56.458Z,2.23
2024-01-20T23:26:23.417Z,1.90
2024-01-20T23:28:50.606Z,2.87
2024-01-20T23:31:17.520Z,2.40
2024-01-20T23:33:44.587Z,1.80
2024-01-20T23:36:13.279Z,2.10
2024-01-20T23:38:40.373Z,1.63
2024-01-20T23:41:07.382Z,1.70
2024-01-20T23:43:34.419Z,1.87
2024-01-20T23:46:03.107Z,2.07
2024-01-20T23:48:30.372Z,1.63
2024-01-20T23:50:57.314Z,1.70
2024-01-20T23:53:24.294Z,1.47
2024-01-20T23:55:51.239Z,1.60
2024-01-20T23:58:18.464Z,1.77
